Terminal Aerodrome Forecast
Issued by NWS Medford, OR

Home | Current Version | Previous Version | Text Only | Print | Product List | Glossary On
Versions: 1 2 3 4 5 6 7 8 9 10 11 12 13
485
FTUS46 KMFR 292320 CCA
TAFMFR
TAF COR
KMFR 292320Z 3000/3024 30008KT P6SM SKC
     FM300100 32010KT P6SM SKC
     FM300400 35005KT P6SM SKC
     FM300500 VRB03KT P6SM SKC
     FM302100 30006KT P6SM SKC=

USA.gov is the U.S. government's official web portal to all federal, state and local government web resources and services.